createdAt,value
2018-12-02T00:01:38.294Z,52.00
2018-12-02T00:04:34.947Z,52.00
2018-12-02T00:07:35.533Z,51.90
2018-12-02T00:10:32.953Z,52.00
2018-12-02T00:16:43.550Z,51.70
2018-12-02T00:19:44.830Z,52.00
2018-12-02T00:22:40.998Z,51.90
2018-12-02T00:25:37.655Z,51.90
2018-12-02T00:28:34.236Z,52.00
2018-12-02T00:31:31.406Z,51.70
2018-12-02T00:34:28.489Z,51.80
2018-12-02T00:37:25.205Z,51.90
2018-12-02T00:40:25.445Z,51.70
2018-12-02T00:43:22.531Z,51.80
2018-12-02T00:46:18.691Z,51.80
2018-12-02T00:49:22.507Z,51.80
2018-12-02T00:52:19.559Z,51.70
2018-12-02T00:55:24.220Z,51.80
2018-12-02T00:58:21.177Z,51.80
2018-12-02T01:01:20.886Z,51.80
2018-12-02T01:04:17.459Z,51.90
2018-12-02T01:07:14.343Z,51.80
2018-12-02T01:10:13.767Z,51.90
2018-12-02T01:13:12.263Z,51.90
2018-12-02T01:16:08.213Z,52.00
2018-12-02T01:19:12.020Z,52.00
2018-12-02T01:22:11.895Z,52.00
2018-12-02T01:25:09.353Z,51.90
2018-12-02T01:28:12.718Z,51.90
2018-12-02T01:31:09.789Z,52.00
2018-12-02T01:34:12.635Z,52.00
2018-12-02T01:37:09.177Z,52.00
2018-12-02T01:40:05.869Z,51.90
2018-12-02T01:43:02.408Z,51.90
2018-12-02T01:46:00.231Z,51.80
2018-12-02T01:48:56.948Z,51.90
2018-12-02T01:51:54.459Z,51.90
2018-12-02T01:54:51.171Z,52.00
2018-12-02T01:57:52.751Z,51.90
2018-12-02T02:00:54.771Z,52.00
2018-12-02T02:03:55.515Z,51.90
2018-12-02T02:06:52.042Z,52.10
2018-12-02T02:09:48.721Z,52.10
2018-12-02T02:12:55.157Z,52.10
2018-12-02T02:15:52.200Z,52.00
2018-12-02T02:18:51.890Z,52.10
2018-12-02T02:21:48.457Z,52.00
2018-12-02T02:24:50.185Z,51.90
2018-12-02T02:27:47.859Z,52.00
2018-12-02T02:30:49.309Z,52.00
2018-12-02T02:33:50.863Z,51.90
2018-12-02T02:36:48.648Z,51.80
2018-12-02T02:39:45.387Z,51.80
2018-12-02T02:42:41.494Z,51.80
2018-12-02T02:45:42.740Z,51.90
2018-12-02T02:48:39.189Z,52.00
2018-12-02T02:51:36.029Z,51.90
2018-12-02T02:54:37.804Z,52.00
2018-12-02T02:57:38.743Z,52.00
2018-12-02T03:00:36.089Z,52.00
2018-12-02T03:03:37.003Z,52.10
2018-12-02T03:06:38.480Z,51.90
2018-12-02T03:09:35.269Z,52.10
2018-12-02T03:12:34.331Z,51.90
2018-12-02T03:15:31.764Z,52.10
2018-12-02T03:18:28.485Z,52.00
2018-12-02T03:21:28.037Z,52.00
2018-12-02T03:24:25.129Z,52.10
2018-12-02T03:27:23.794Z,52.00
2018-12-02T03:30:30.114Z,51.80
2018-12-02T03:33:31.593Z,52.20
2018-12-02T03:36:28.786Z,51.90
2018-12-02T03:39:29.518Z,51.80
2018-12-02T03:42:26.592Z,51.80
2018-12-02T03:45:29.765Z,52.00
2018-12-02T03:48:31.342Z,51.90
2018-12-02T03:51:35.221Z,51.70
2018-12-02T03:54:36.205Z,51.70
2018-12-02T03:57:37.107Z,51.80
2018-12-02T04:00:38.006Z,51.90
2018-12-02T04:03:39.104Z,51.80
2018-12-02T04:06:48.350Z,51.80
2018-12-02T04:09:52.151Z,51.70
2018-12-02T04:12:53.836Z,51.80
2018-12-02T04:18:58.138Z,51.80
2018-12-02T04:21:58.924Z,51.90
2018-12-02T04:24:59.400Z,51.80
2018-12-02T04:28:03.126Z,51.90
2018-12-02T04:31:00.408Z,51.80
2018-12-02T04:34:02.073Z,52.00
2018-12-02T04:37:04.897Z,51.80
2018-12-02T04:40:06.498Z,51.90
2018-12-02T04:43:07.358Z,52.00
2018-12-02T04:46:08.845Z,51.80
2018-12-02T04:49:10.526Z,51.90
2018-12-02T04:52:12.742Z,52.00
2018-12-02T04:55:15.038Z,51.90
2018-12-02T04:58:16.428Z,52.00
2018-12-02T05:01:18.766Z,51.70
2018-12-02T05:04:19.798Z,52.30
2018-12-02T05:07:22.309Z,52.00
2018-12-02T05:10:26.076Z,51.90
2018-12-02T05:13:26.991Z,52.00
2018-12-02T05:16:29.210Z,52.10
2018-12-02T05:19:34.888Z,51.90
2018-12-02T05:22:36.215Z,51.80
2018-12-02T05:25:41.886Z,51.90
2018-12-02T05:31:59.921Z,51.80
2018-12-02T05:35:01.377Z,52.00
2018-12-02T05:38:02.340Z,51.80
2018-12-02T05:41:03.841Z,51.80
2018-12-02T05:44:07.343Z,51.90
2018-12-02T05:47:09.854Z,51.80
2018-12-02T05:50:19.859Z,51.70
2018-12-02T05:53:29.164Z,51.70
2018-12-02T05:56:48.343Z,51.80
2018-12-02T05:59:51.533Z,51.90
2018-12-02T06:02:54.224Z,51.90
2018-12-02T06:06:18.316Z,52.00
2018-12-02T06:12:37.445Z,51.70
2018-12-02T06:15:40.215Z,51.70
2018-12-02T06:18:37.971Z,51.70
2018-12-02T06:21:40.027Z,52.00
2018-12-02T06:24:36.960Z,51.90
2018-12-02T06:27:38.306Z,52.00
2018-12-02T06:30:40.480Z,51.70
2018-12-02T06:33:38.548Z,51.80
2018-12-02T06:36:35.366Z,51.60
2018-12-02T06:39:39.333Z,51.50
2018-12-02T06:42:36.326Z,51.60
2018-12-02T06:45:36.867Z,51.90
2018-12-02T06:48:33.587Z,51.60
2018-12-02T06:51:29.970Z,51.70
2018-12-02T06:54:32.687Z,51.60
2018-12-02T06:57:32.014Z,51.70
2018-12-02T07:00:40.477Z,51.70
2018-12-02T07:03:55.381Z,51.60
2018-12-02T07:06:56.431Z,51.80
2018-12-02T07:09:53.597Z,51.60
2018-12-02T07:12:50.868Z,51.40
2018-12-02T07:15:48.507Z,51.40
2018-12-02T07:18:44.762Z,51.80
2018-12-02T07:21:42.042Z,51.60
2018-12-02T07:24:47.761Z,51.50
2018-12-02T07:27:49.559Z,51.30
2018-12-02T07:30:55.183Z,51.30
2018-12-02T07:33:59.297Z,51.10
2018-12-02T07:37:04.125Z,51.00
2018-12-02T07:40:23.099Z,51.50
2018-12-02T07:43:27.033Z,51.20
2018-12-02T07:46:29.065Z,51.30
2018-12-02T07:49:30.800Z,51.40
2018-12-02T07:52:36.536Z,51.20
2018-12-02T07:55:36.909Z,51.90
2018-12-02T07:58:37.440Z,51.50
2018-12-02T08:01:37.874Z,51.30
2018-12-02T08:04:42.387Z,51.30
2018-12-02T08:07:43.312Z,51.30
2018-12-02T08:10:44.890Z,51.20
2018-12-02T08:13:45.162Z,51.60
2018-12-02T08:16:49.153Z,51.60
2018-12-02T08:19:50.755Z,51.30
2018-12-02T08:22:57.040Z,51.30
2018-12-02T08:26:02.301Z,51.20
2018-12-02T08:28:59.522Z,51.30
2018-12-02T08:32:00.897Z,51.10
2018-12-02T08:35:06.164Z,51.50
2018-12-02T08:38:12.874Z,51.20
2018-12-02T08:41:16.464Z,51.30
2018-12-02T08:44:18.438Z,51.20
2018-12-02T08:47:20.499Z,51.50
2018-12-02T08:50:21.857Z,51.40
2018-12-02T08:53:23.562Z,51.20
2018-12-02T08:56:21.010Z,51.10
2018-12-02T08:59:23.055Z,51.30
2018-12-02T09:02:25.707Z,51.20
2018-12-02T09:05:27.510Z,51.20
2018-12-02T09:08:32.396Z,51.10
2018-12-02T09:11:30.036Z,51.10
2018-12-02T09:14:32.717Z,51.00
2018-12-02T09:17:43.752Z,51.00
2018-12-02T09:20:46.111Z,51.10
2018-12-02T09:23:47.733Z,51.50
2018-12-02T09:26:49.895Z,51.30
2018-12-02T09:29:51.049Z,51.20
2018-12-02T09:32:56.585Z,51.00
2018-12-02T09:36:01.192Z,51.10
2018-12-02T09:38:58.947Z,51.30
2018-12-02T09:41:56.814Z,51.30
2018-12-02T09:44:57.968Z,51.10
2018-12-02T09:48:00.146Z,51.40
2018-12-02T09:51:03.002Z,51.20
2018-12-02T09:54:10.281Z,51.30
2018-12-02T09:57:10.275Z,50.90
2018-12-02T10:00:22.011Z,51.30
2018-12-02T10:03:22.771Z,51.30
2018-12-02T10:06:23.712Z,51.20
2018-12-02T10:09:25.349Z,51.50
2018-12-02T10:12:26.568Z,51.40
2018-12-02T10:15:28.122Z,51.40
2018-12-02T10:18:29.408Z,51.30
2018-12-02T10:21:30.915Z,51.30
2018-12-02T10:24:28.296Z,51.40
2018-12-02T10:27:25.491Z,51.40
2018-12-02T10:30:29.676Z,51.30
2018-12-02T10:33:26.803Z,51.20
2018-12-02T10:36:27.670Z,51.50
2018-12-02T10:39:29.857Z,51.50
2018-12-02T10:42:30.889Z,51.30
2018-12-02T10:45:37.317Z,51.40
2018-12-02T10:48:35.166Z,51.50
2018-12-02T10:51:32.703Z,51.50
2018-12-02T10:54:29.902Z,51.40
2018-12-02T10:57:32.335Z,51.60
2018-12-02T11:00:45.506Z,51.50
2018-12-02T11:03:49.426Z,51.40
2018-12-02T11:06:46.780Z,51.40
2018-12-02T11:09:51.421Z,51.40
2018-12-02T11:12:48.860Z,51.40
2018-12-02T11:15:49.721Z,51.50
2018-12-02T11:18:47.342Z,51.50
2018-12-02T11:21:47.100Z,51.60
2018-12-02T11:24:46.839Z,51.60
2018-12-02T11:27:44.788Z,51.60
2018-12-02T11:30:44.313Z,51.50
2018-12-02T11:33:41.717Z,51.60
2018-12-02T11:36:38.742Z,51.50
2018-12-02T11:39:35.649Z,51.50
2018-12-02T11:42:35.699Z,51.60
2018-12-02T11:45:32.989Z,51.50
2018-12-02T11:48:30.420Z,51.70
2018-12-02T11:51:27.641Z,51.70
2018-12-02T11:54:23.720Z,51.70
2018-12-02T11:57:26.689Z,51.60
2018-12-02T12:00:26.858Z,51.60
2018-12-02T12:03:23.740Z,51.70
2018-12-02T12:06:27.045Z,51.70
2018-12-02T12:09:23.957Z,51.70
2018-12-02T12:12:28.160Z,51.80
2018-12-02T12:15:32.239Z,51.80
2018-12-02T12:18:29.858Z,51.90
2018-12-02T12:21:26.882Z,51.90
2018-12-02T12:24:24.076Z,51.80
2018-12-02T12:27:23.885Z,51.90
2018-12-02T12:30:45.823Z,52.00
2018-12-02T12:33:43.210Z,51.90
2018-12-02T12:36:44.025Z,52.10
2018-12-02T12:39:45.213Z,51.80
2018-12-02T12:42:48.155Z,52.00
2018-12-02T12:45:50.707Z,51.90
2018-12-02T12:48:51.239Z,52.00
2018-12-02T12:51:47.700Z,51.90
2018-12-02T12:54:52.333Z,52.00
2018-12-02T12:57:53.818Z,52.10
2018-12-02T13:00:51.254Z,52.00
2018-12-02T13:03:48.585Z,51.90
2018-12-02T13:06:45.153Z,52.10
2018-12-02T13:09:41.797Z,51.90
2018-12-02T13:12:38.086Z,52.00
2018-12-02T13:15:34.422Z,52.10
2018-12-02T13:18:32.749Z,51.80
2018-12-02T13:21:31.746Z,52.00
2018-12-02T13:24:28.218Z,52.10
2018-12-02T13:27:24.897Z,52.00
2018-12-02T13:30:34.253Z,51.90
2018-12-02T13:33:32.274Z,52.00
2018-12-02T13:36:31.281Z,52.10
2018-12-02T13:39:27.948Z,52.10
2018-12-02T13:42:28.809Z,52.20
2018-12-02T13:45:32.259Z,52.10
2018-12-02T13:48:33.858Z,52.00
2018-12-02T13:51:30.791Z,52.20
2018-12-02T13:54:41.778Z,52.10
2018-12-02T13:57:42.253Z,52.10
2018-12-02T14:00:39.862Z,52.20
2018-12-02T14:03:40.595Z,52.20
2018-12-02T14:06:37.370Z,52.30
2018-12-02T14:09:34.273Z,52.20
2018-12-02T14:12:35.568Z,52.20
2018-12-02T14:15:53.149Z,52.40
2018-12-02T14:18:56.638Z,52.30
2018-12-02T14:21:58.450Z,52.30
2018-12-02T14:28:20.675Z,52.40
2018-12-02T14:31:24.679Z,52.40
2018-12-02T14:34:26.901Z,52.40
2018-12-02T14:37:28.945Z,52.30
2018-12-02T14:40:30.268Z,52.20
2018-12-02T14:43:31.949Z,52.40
2018-12-02T14:46:34.145Z,52.90
2018-12-02T14:49:35.124Z,52.30
2018-12-02T14:52:36.237Z,52.20
2018-12-02T14:55:39.896Z,52.30
2018-12-02T14:58:43.373Z,52.30
2018-12-02T15:01:41.367Z,52.30
2018-12-02T15:04:43.068Z,52.80
2018-12-02T15:07:40.393Z,52.10
2018-12-02T15:10:37.584Z,52.20
2018-12-02T15:13:34.426Z,52.20
2018-12-02T15:16:34.629Z,52.20
2018-12-02T15:19:32.197Z,52.20
2018-12-02T15:22:35.070Z,52.20
2018-12-02T15:25:36.956Z,52.10
2018-12-02T15:28:34.259Z,52.80
2018-12-02T15:31:36.413Z,52.00
2018-12-02T15:34:33.673Z,52.00
2018-12-02T15:37:31.677Z,52.20
2018-12-02T15:40:30.696Z,52.10
2018-12-02T15:43:28.522Z,52.10
2018-12-02T15:46:25.456Z,52.10
2018-12-02T15:49:25.127Z,52.10
2018-12-02T15:52:26.180Z,52.20
2018-12-02T15:55:37.568Z,52.20
2018-12-02T15:58:34.865Z,52.20
2018-12-02T16:01:34.915Z,52.20
2018-12-02T16:04:41.288Z,52.10
2018-12-02T16:07:44.764Z,52.20
2018-12-02T16:10:46.431Z,52.20
2018-12-02T16:13:48.121Z,52.20
2018-12-02T16:16:45.489Z,52.10
2018-12-02T16:19:51.126Z,52.10
2018-12-02T16:22:48.033Z,52.10
2018-12-02T16:25:48.357Z,52.10
2018-12-02T16:28:41.458Z,52.10
2018-12-02T16:31:38.234Z,52.10
2018-12-02T16:34:34.893Z,52.20
2018-12-02T16:37:30.503Z,52.20
2018-12-02T16:40:29.037Z,52.10
2018-12-02T16:43:25.678Z,52.10
2018-12-02T16:46:22.142Z,52.10
2018-12-02T16:49:23.506Z,52.10
2018-12-02T16:52:19.773Z,52.10
2018-12-02T16:55:22.138Z,52.10
2018-12-02T16:58:42.282Z,52.20
2018-12-02T17:01:39.837Z,52.20
2018-12-02T17:04:37.151Z,52.10
2018-12-02T17:07:37.758Z,52.20
2018-12-02T17:10:30.436Z,52.10
2018-12-02T17:13:25.897Z,52.10
2018-12-02T17:16:22.291Z,52.10
2018-12-02T17:19:21.460Z,52.00
2018-12-02T17:22:17.863Z,52.10
2018-12-02T17:25:15.659Z,52.10
2018-12-02T17:28:18.152Z,52.10
2018-12-02T17:31:22.967Z,52.00
2018-12-02T17:34:22.839Z,51.90
2018-12-02T17:37:15.463Z,51.90
2018-12-02T17:40:22.645Z,51.90
2018-12-02T17:43:23.895Z,52.10
2018-12-02T17:46:21.376Z,52.00
2018-12-02T17:49:27.296Z,51.90
2018-12-02T17:52:24.157Z,52.00
2018-12-02T17:55:20.532Z,52.00
2018-12-02T17:58:21.482Z,51.90
2018-12-02T18:01:14.268Z,51.80
2018-12-02T18:04:11.479Z,51.90
2018-12-02T18:07:08.262Z,51.90
2018-12-02T18:10:05.361Z,51.90
2018-12-02T18:13:07.969Z,51.90
2018-12-02T18:16:05.695Z,51.80
2018-12-02T18:19:02.037Z,51.60
2018-12-02T18:25:11.263Z,51.70
2018-12-02T18:28:08.147Z,51.70
2018-12-02T18:31:09.044Z,51.70
2018-12-02T18:34:05.961Z,51.70
2018-12-02T18:37:06.234Z,51.70
2018-12-02T18:40:07.578Z,51.70
2018-12-02T18:43:08.860Z,51.50
2018-12-02T18:46:09.673Z,51.80
2018-12-02T18:49:10.847Z,51.80
2018-12-02T18:52:14.317Z,51.70
2018-12-02T18:55:16.051Z,51.60
2018-12-02T18:58:17.940Z,51.70
2018-12-02T19:01:19.437Z,51.70
2018-12-02T19:04:21.002Z,51.60
2018-12-02T19:07:21.223Z,51.70
2018-12-02T19:10:22.767Z,51.70
2018-12-02T19:13:22.540Z,51.70
2018-12-02T19:16:22.670Z,51.60
2018-12-02T19:19:16.842Z,51.70
2018-12-02T19:22:13.961Z,51.70
2018-12-02T19:25:13.105Z,51.70
2018-12-02T19:28:09.875Z,51.60
2018-12-02T19:31:06.405Z,51.70
2018-12-02T19:34:03.424Z,51.60
2018-12-02T19:37:05.700Z,51.70
2018-12-02T19:40:04.634Z,51.70
2018-12-02T19:43:01.618Z,51.70
2018-12-02T19:46:00.991Z,51.70
2018-12-02T19:49:00.938Z,51.60
2018-12-02T19:51:58.553Z,51.70
2018-12-02T19:54:56.513Z,51.60
2018-12-02T19:58:00.186Z,51.70
2018-12-02T20:00:58.374Z,51.70
2018-12-02T20:03:54.497Z,51.60
2018-12-02T20:06:54.554Z,51.60
2018-12-02T20:09:47.984Z,51.60
2018-12-02T20:12:44.415Z,51.60
2018-12-02T20:16:03.717Z,51.60
2018-12-02T20:22:13.043Z,51.80
2018-12-02T20:25:09.467Z,51.60
2018-12-02T20:28:07.412Z,51.50
2018-12-02T20:31:04.918Z,51.70
2018-12-02T20:34:01.813Z,51.60
2018-12-02T20:40:00.283Z,51.70
2018-12-02T20:42:57.154Z,51.70
2018-12-02T20:45:54.040Z,51.70
2018-12-02T20:48:54.584Z,51.70
2018-12-02T20:51:51.190Z,51.70
2018-12-02T20:54:48.324Z,51.70
2018-12-02T20:57:44.568Z,51.80
2018-12-02T21:00:50.333Z,51.70
2018-12-02T21:03:46.995Z,51.80
2018-12-02T21:06:46.582Z,51.80
2018-12-02T21:09:43.580Z,51.80
2018-12-02T21:12:39.833Z,51.70
2018-12-02T21:15:36.437Z,51.50
2018-12-02T21:18:36.929Z,51.80
2018-12-02T21:21:37.119Z,51.70
2018-12-02T21:24:30.125Z,51.50
2018-12-02T21:27:26.917Z,51.70
2018-12-02T21:30:27.292Z,51.80
2018-12-02T21:33:23.778Z,51.80
2018-12-02T21:36:20.279Z,51.60
2018-12-02T21:39:22.968Z,51.70
2018-12-02T21:42:22.641Z,51.90
2018-12-02T21:45:20.011Z,51.90
2018-12-02T21:48:35.411Z,51.90
2018-12-02T21:51:27.546Z,51.90
2018-12-02T21:54:27.748Z,51.90
2018-12-02T21:57:36.759Z,52.00
2018-12-02T22:00:57.523Z,51.90
2018-12-02T22:03:58.834Z,51.80
2018-12-02T22:06:57.787Z,51.90
2018-12-02T22:09:55.819Z,52.00
2018-12-02T22:12:56.652Z,52.00
2018-12-02T22:15:56.969Z,52.00
2018-12-02T22:18:53.590Z,51.80
2018-12-02T22:21:51.433Z,52.00
2018-12-02T22:24:48.401Z,52.00
2018-12-02T22:27:58.393Z,52.00
2018-12-02T22:31:00.625Z,52.00
2018-12-02T22:33:55.799Z,52.10
2018-12-02T22:36:52.298Z,52.00
2018-12-02T22:39:54.616Z,52.00
2018-12-02T22:42:58.719Z,52.00
2018-12-02T22:45:55.428Z,52.00
2018-12-02T22:49:06.462Z,52.10
2018-12-02T22:52:00.271Z,52.00
2018-12-02T22:55:00.794Z,52.10
2018-12-02T22:58:08.066Z,52.00
2018-12-02T23:01:23.686Z,52.00
2018-12-02T23:04:27.778Z,52.10
2018-12-02T23:07:27.438Z,52.10
2018-12-02T23:10:28.285Z,52.10
2018-12-02T23:16:43.040Z,52.00
2018-12-02T23:19:48.226Z,52.00
2018-12-02T23:22:56.215Z,52.10
2018-12-02T23:26:03.449Z,52.10
2018-12-02T23:29:08.381Z,52.00
2018-12-02T23:32:00.294Z,52.00
2018-12-02T23:35:06.322Z,52.10
2018-12-02T23:38:07.458Z,52.20
2018-12-02T23:41:00.881Z,52.00
2018-12-02T23:43:58.083Z,52.10
2018-12-02T23:46:58.914Z,52.10
2018-12-02T23:49:54.466Z,52.10
2018-12-02T23:52:50.584Z,52.20
2018-12-02T23:55:46.744Z,52.10
2018-12-02T23:58:46.642Z,52.00
